Portland, Connecticut
Current Conditions -  °F | °C
As of 6:53 PM on Thursday 18 Dec 2014 (Local Time) from KHFD Reporting Station
Scattered Clouds Scattered Clouds  
Wind Chill: 32°   Ceiling: Unl
Heat Index: 37°   Visibility: 10mi
Dew Point: 26°   Wind: 6mph
Humidity: 65%   Direction: NA
Pressure: 29.91"   Gusts: NA
Location:  41.58°N, 72.64°W
Report Text: KHFD 182353Z VRB05KT 10SM SCT060 03/M03 A2991 RMK AO2 SLP130 T00281033 10044 20028 50008
Loading
Personal Weather Stations






























Interactive Weather Map New forecast layout! Learn more

10-Day Weather Forecast

Advertisements
Track Severe Weather on mobile